»·PEaware :: N365SP KSNA-KSMO

N365SP :: KSNA-KSMO

FLIGHT INFORMATION

Flight Status: Arrived
Operator: Privately registered:
United States
More flights under this callsign
Pilot: Michael K. (6354)
Aircraft: CESSNA 172 SKYHAWK
(C172)
More flights by this aircraft type
Origin: KSNA John Wayne-Orange Co
United States
Destination: KSMO Santa Monica Mun
United States
More flights between these airports :: More routes between these airports
Route: +SLI V8 POXKU V363 BAYJY V186 DARTS
File this flight plan on PilotEdge
Remarks: I4 rating
Altitude:
(Current/Filed)
4,000ft
Speed:
(Current/Filed)
115kts
Departed: 07-Oct-18 06:52 PM
Arrived: 07-Oct-18 07:36 PM
Distance/Time
Traveled:
36nm/0:44
Distance/Time
To Go:
Arrived

Flight Plot

Page will automatically refresh every two minutes.


Map Options




Map Legend


Flown Route
Filed Route
Departure Airport
Arrival Airport
Navaid (VOR, NDB)
Fix

Horizontal Profiles

Position Reports

Time Latitude Longitude Heading Altitude Ground
Speed
07-Oct-18 17:49 33.675993 -117.872223 22 59ft 0kts
07-Oct-18 17:50 33.675993 -117.872223 22 59ft 0kts
07-Oct-18 17:51 33.675993 -117.872223 22 59ft 0kts
07-Oct-18 17:52 33.675993 -117.872223 22 59ft 0kts
07-Oct-18 17:53 33.675993 -117.872223 22 59ft 0kts
07-Oct-18 17:54 33.675993 -117.872223 22 59ft 0kts
07-Oct-18 17:55 33.675993 -117.872223 22 59ft 0kts
07-Oct-18 17:56 33.675993 -117.872223 22 59ft 0kts
07-Oct-18 17:57 33.675993 -117.872223 22 59ft 0kts
07-Oct-18 17:58 33.675993 -117.872223 22 59ft 0kts
07-Oct-18 17:59 33.675993 -117.872223 22 59ft 0kts
07-Oct-18 18:00 33.675993 -117.872223 22 59ft 0kts
07-Oct-18 18:01 33.675993 -117.872223 22 59ft 0kts
07-Oct-18 18:02 33.675993 -117.872223 22 59ft 0kts
07-Oct-18 18:03 33.675993 -117.872223 22 59ft 0kts
07-Oct-18 18:04 33.675993 -117.872223 22 59ft 0kts
07-Oct-18 18:05 33.675993 -117.872223 22 59ft 0kts
07-Oct-18 18:06 33.675993 -117.872223 22 59ft 0kts
07-Oct-18 18:07 33.675993 -117.872223 22 59ft 0kts
07-Oct-18 18:08 33.675993 -117.872223 22 59ft 0kts
07-Oct-18 18:09 33.675993 -117.872223 22 59ft 0kts
07-Oct-18 18:10 33.675994 -117.872222 22 59ft 0kts
07-Oct-18 18:11 33.675995 -117.872222 22 59ft 0kts
07-Oct-18 18:12 33.675996 -117.872221 22 59ft 0kts
07-Oct-18 18:13 33.675997 -117.872221 22 59ft 0kts
07-Oct-18 18:14 33.675998 -117.872220 22 59ft 0kts
07-Oct-18 18:15 33.675999 -117.872220 22 59ft 0kts
07-Oct-18 18:16 33.676000 -117.872219 22 59ft 0kts
07-Oct-18 18:17 33.676001 -117.872219 22 59ft 0kts
07-Oct-18 18:18 33.676002 -117.872218 22 59ft 0kts
07-Oct-18 18:19 33.676003 -117.872218 22 59ft 0kts
07-Oct-18 18:20 33.676004 -117.872217 22 59ft 0kts
07-Oct-18 18:21 33.676005 -117.872217 22 59ft 0kts
07-Oct-18 18:22 33.676006 -117.872216 22 59ft 0kts
07-Oct-18 18:23 33.676007 -117.872216 22 59ft 0kts
07-Oct-18 18:24 33.676008 -117.872215 22 59ft 0kts
07-Oct-18 18:25 33.676009 -117.872215 22 59ft 0kts
07-Oct-18 18:26 33.676010 -117.872214 22 59ft 0kts
07-Oct-18 18:27 33.676011 -117.872214 22 59ft 0kts
07-Oct-18 18:28 33.676012 -117.872213 22 59ft 0kts
07-Oct-18 18:29 33.676013 -117.872213 22 59ft 0kts
07-Oct-18 18:30 33.676014 -117.872212 22 59ft 0kts
07-Oct-18 18:31 33.676015 -117.872212 22 59ft 0kts
07-Oct-18 18:32 33.676016 -117.872211 22 59ft 0kts
07-Oct-18 18:33 33.676017 -117.872211 22 59ft 0kts
07-Oct-18 18:34 33.676018 -117.872210 22 59ft 0kts
07-Oct-18 18:35 33.676019 -117.872210 22 59ft 0kts
07-Oct-18 18:36 33.676020 -117.872209 22 59ft 0kts
07-Oct-18 18:37 33.676021 -117.872209 22 59ft 0kts
07-Oct-18 18:38 33.676022 -117.872208 22 59ft 0kts
07-Oct-18 18:39 33.676023 -117.872208 22 59ft 0kts
07-Oct-18 18:40 33.676024 -117.872207 22 59ft 0kts
07-Oct-18 18:41 33.676025 -117.872207 22 59ft 0kts
07-Oct-18 18:42 33.676026 -117.872206 22 59ft 0kts
07-Oct-18 18:43 33.676027 -117.872206 22 59ft 0kts
07-Oct-18 18:44 33.676029 -117.872205 22 59ft 0kts
07-Oct-18 18:45 33.675804 -117.872103 165 59ft 1kts
07-Oct-18 18:46 33.674647 -117.871203 98 59ft 8kts
07-Oct-18 18:47 33.680894 -117.867318 50 59ft 18kts
07-Oct-18 18:48 33.680942 -117.866619 87 59ft 0kts
07-Oct-18 18:49 33.680942 -117.866619 87 59ft 0kts
07-Oct-18 18:50 33.680942 -117.866619 87 59ft 0kts
07-Oct-18 18:51 33.680943 -117.866612 87 59ft 0kts
07-Oct-18 18:52 33.680943 -117.866609 87 59ft 0kts
07-Oct-18 18:53 33.680794 -117.866283 123 59ft 11kts
07-Oct-18 18:54 33.674969 -117.869340 207 158ft 67kts
07-Oct-18 18:55 33.660147 -117.883719 229 931ft 74kts
07-Oct-18 18:56 33.647088 -117.903878 231 1619ft 80kts
07-Oct-18 18:57 33.631299 -117.926406 226 1968ft 96kts
07-Oct-18 18:58 33.633789 -117.946263 11 2543ft 102kts
07-Oct-18 18:59 33.660299 -117.933130 18 3036ft 108kts
07-Oct-18 19:00 33.687837 -117.921590 19 3514ft 104kts
07-Oct-18 19:01 33.713859 -117.908347 19 4050ft 100kts
07-Oct-18 19:02 33.739225 -117.895607 19 4540ft 97kts
07-Oct-18 19:03 33.763626 -117.883558 18 5033ft 92kts
07-Oct-18 19:04 33.787256 -117.872029 18 5477ft 91kts
07-Oct-18 19:05 33.810857 -117.860652 18 5886ft 90kts
07-Oct-18 19:06 33.836180 -117.848776 18 6004ft 106kts
07-Oct-18 19:07 33.853812 -117.823888 75 6019ft 114kts
07-Oct-18 19:08 33.854327 -117.785097 70 6024ft 106kts
07-Oct-18 19:09 33.880123 -117.780430 346 5924ft 108kts
07-Oct-18 19:10 33.907283 -117.791235 345 5972ft 105kts
07-Oct-18 19:11 33.935592 -117.790019 12 6105ft 101kts
07-Oct-18 19:12 33.965133 -117.784592 354 6035ft 102kts
07-Oct-18 19:13 33.994500 -117.786519 358 5971ft 108kts
07-Oct-18 19:14 34.014578 -117.803022 286 6098ft 92kts
07-Oct-18 19:15 34.019394 -117.835868 280 6129ft 101kts
07-Oct-18 19:16 34.024803 -117.870450 281 6029ft 108kts
07-Oct-18 19:17 34.030164 -117.905754 281 6015ft 105kts
07-Oct-18 19:18 34.035339 -117.940471 281 6011ft 105kts
07-Oct-18 19:19 34.048763 -117.970403 315 5977ft 105kts
07-Oct-18 19:20 34.064981 -117.996988 272 6027ft 104kts
07-Oct-18 19:21 34.063053 -118.030992 285 6048ft 94kts
07-Oct-18 19:22 34.074471 -118.060940 294 5971ft 97kts
07-Oct-18 19:23 34.083158 -118.091979 290 5953ft 98kts
07-Oct-18 19:24 34.097002 -118.118429 315 6007ft 93kts
07-Oct-18 19:25 34.115060 -118.141859 315 6007ft 96kts
07-Oct-18 19:26 34.131459 -118.173420 299 5330ft 122kts
07-Oct-18 19:27 34.148349 -118.209276 296 4689ft 111kts
07-Oct-18 19:28 34.161283 -118.239802 298 4486ft 103kts
07-Oct-18 19:29 34.154251 -118.260940 220 4281ft 95kts
07-Oct-18 19:30 34.134535 -118.284232 224 3691ft 101kts
07-Oct-18 19:31 34.114801 -118.307025 225 3155ft 94kts
07-Oct-18 19:32 34.096032 -118.328604 220 3015ft 90kts
07-Oct-18 19:33 34.078091 -118.349025 248 3016ft 95kts
07-Oct-18 19:34 34.071593 -118.379045 249 3036ft 91kts
07-Oct-18 19:35 34.058465 -118.401265 228 2439ft 84kts
07-Oct-18 19:36 34.041786 -118.420418 225 1492ft 70kts
07-Oct-18 19:37 34.028663 -118.436050 224 546ft 64kts
07-Oct-18 19:38 34.017841 -118.448913 223 178ft 24kts
07-Oct-18 19:39 34.014280 -118.454284 80 178ft 0kts
07-Oct-18 19:40 34.014280 -118.454283 80 178ft 0kts
07-Oct-18 19:41 34.016718 -118.451399 42 178ft 27kts
07-Oct-18 19:42 34.017922 -118.451056 131 178ft 6kts
07-Oct-18 19:43 34.017047 -118.453041 219 178ft 0kts
07-Oct-18 19:44 34.017047 -118.453042 219 178ft 0kts
07-Oct-18 19:45 34.017047 -118.453042 219 178ft 0kts
07-Oct-18 19:46 34.017045 -118.453043 219 178ft 0kts
07-Oct-18 19:47 34.017043 -118.453045 218 178ft 0kts
07-Oct-18 19:48 34.017042 -118.453047 218 178ft 0kts
07-Oct-18 19:49 34.017040 -118.453049 218 178ft 0kts
07-Oct-18 19:50 34.017038 -118.453050 218 178ft 0kts
07-Oct-18 19:51 34.017036 -118.453052 218 178ft 0kts

Navigation Log

Ident Type
1. KSNA Airport
2. SLI Navaid
3. AHEIM Fix
4. OLLIE Fix
5. POXKU Fix
6. POXKU Fix
7. PRADO Fix
8. BAYJY Fix
9. BAYJY Fix
10. ADAMM Fix
11. PIRRO Fix
12. ITSME Fix
13. ELMOO Fix
14. PURMS Fix
15. DARTS Fix
16. KSMO Airport